sensor_id;sensor_type;location;lat;lon;timestamp;P1;durP1;ratioP1;P2;durP2;ratioP2
38208;SDS011;24016;52.102;11.584;2023-03-11T00:00:18;15.85;;;10.68;;
38208;SDS011;24016;52.102;11.584;2023-03-11T00:02:46;15.80;;;10.55;;
38208;SDS011;24016;52.102;11.584;2023-03-11T00:05:15;13.93;;;9.75;;
38208;SDS011;24016;52.102;11.584;2023-03-11T00:07:43;14.43;;;9.52;;
38208;SDS011;24016;52.102;11.584;2023-03-11T00:10:12;16.70;;;8.73;;
38208;SDS011;24016;52.102;11.584;2023-03-11T00:12:42;11.32;;;7.65;;
38208;SDS011;24016;52.102;11.584;2023-03-11T00:15:08;10.55;;;6.68;;
38208;SDS011;24016;52.102;11.584;2023-03-11T00:17:34;9.98;;;6.90;;
38208;SDS011;24016;52.102;11.584;2023-03-11T00:20:00;9.25;;;6.57;;
38208;SDS011;24016;52.102;11.584;2023-03-11T00:22:25;9.38;;;6.85;;
38208;SDS011;24016;52.102;11.584;2023-03-11T00:24:51;9.10;;;6.38;;
38208;SDS011;24016;52.102;11.584;2023-03-11T00:27:17;8.85;;;6.57;;
38208;SDS011;24016;52.102;11.584;2023-03-11T00:29:42;12.48;;;6.85;;
38208;SDS011;24016;52.102;11.584;2023-03-11T00:32:08;10.68;;;7.60;;
38208;SDS011;24016;52.102;11.584;2023-03-11T00:34:33;11.68;;;7.50;;
38208;SDS011;24016;52.102;11.584;2023-03-11T00:36:59;10.98;;;7.28;;
38208;SDS011;24016;52.102;11.584;2023-03-11T00:39:24;11.00;;;7.20;;
38208;SDS011;24016;52.102;11.584;2023-03-11T00:41:49;10.70;;;7.63;;
38208;SDS011;24016;52.102;11.584;2023-03-11T00:44:15;13.48;;;8.55;;
38208;SDS011;24016;52.102;11.584;2023-03-11T00:46:41;11.77;;;8.27;;
38208;SDS011;24016;52.102;11.584;2023-03-11T00:49:06;11.52;;;7.78;;
38208;SDS011;24016;52.102;11.584;2023-03-11T00:51:32;13.23;;;9.23;;
38208;SDS011;24016;52.102;11.584;2023-03-11T00:53:58;15.75;;;9.18;;
38208;SDS011;24016;52.102;11.584;2023-03-11T00:56:24;12.60;;;9.15;;
38208;SDS011;24016;52.102;11.584;2023-03-11T00:58:50;14.10;;;9.73;;
38208;SDS011;24016;52.102;11.584;2023-03-11T01:01:16;14.15;;;9.85;;
38208;SDS011;24016;52.102;11.584;2023-03-11T01:03:43;13.05;;;9.75;;
38208;SDS011;24016;52.102;11.584;2023-03-11T01:06:08;14.52;;;10.50;;
38208;SDS011;24016;52.102;11.584;2023-03-11T01:08:34;13.23;;;9.35;;
38208;SDS011;24016;52.102;11.584;2023-03-11T01:11:00;14.13;;;9.45;;
38208;SDS011;24016;52.102;11.584;2023-03-11T01:13:27;14.38;;;9.73;;
38208;SDS011;24016;52.102;11.584;2023-03-11T01:15:54;14.30;;;9.95;;
38208;SDS011;24016;52.102;11.584;2023-03-11T01:18:20;15.90;;;9.55;;
38208;SDS011;24016;52.102;11.584;2023-03-11T01:20:46;13.65;;;10.18;;
38208;SDS011;24016;52.102;11.584;2023-03-11T01:23:13;13.68;;;9.70;;
38208;SDS011;24016;52.102;11.584;2023-03-11T01:25:39;14.15;;;10.32;;
38208;SDS011;24016;52.102;11.584;2023-03-11T01:28:05;16.50;;;10.65;;
38208;SDS011;24016;52.102;11.584;2023-03-11T01:30:32;13.90;;;9.75;;
38208;SDS011;24016;52.102;11.584;2023-03-11T01:32:58;12.25;;;9.90;;
38208;SDS011;24016;52.102;11.584;2023-03-11T01:35:24;12.60;;;9.60;;
38208;SDS011;24016;52.102;11.584;2023-03-11T01:37:51;13.90;;;10.48;;
38208;SDS011;24016;52.102;11.584;2023-03-11T01:40:18;14.55;;;11.10;;
38208;SDS011;24016;52.102;11.584;2023-03-11T01:42:59;18.10;;;11.40;;
38208;SDS011;24016;52.102;11.584;2023-03-11T01:45:40;14.60;;;10.73;;
38208;SDS011;24016;52.102;11.584;2023-03-11T01:48:29;13.90;;;10.65;;
38208;SDS011;24016;52.102;11.584;2023-03-11T01:50:54;15.60;;;10.90;;
38208;SDS011;24016;52.102;11.584;2023-03-11T01:53:20;13.45;;;10.57;;
38208;SDS011;24016;52.102;11.584;2023-03-11T01:55:47;15.02;;;11.18;;
38208;SDS011;24016;52.102;11.584;2023-03-11T01:58:15;15.93;;;11.13;;
38208;SDS011;24016;52.102;11.584;2023-03-11T02:00:44;14.07;;;10.27;;
38208;SDS011;24016;52.102;11.584;2023-03-11T02:03:12;15.48;;;12.02;;
38208;SDS011;24016;52.102;11.584;2023-03-11T02:05:42;14.15;;;10.75;;
38208;SDS011;24016;52.102;11.584;2023-03-11T02:08:08;13.75;;;10.35;;
38208;SDS011;24016;52.102;11.584;2023-03-11T02:10:34;16.20;;;11.52;;
38208;SDS011;24016;52.102;11.584;2023-03-11T02:13:02;16.13;;;11.32;;
38208;SDS011;24016;52.102;11.584;2023-03-11T02:15:28;16.50;;;11.50;;
38208;SDS011;24016;52.102;11.584;2023-03-11T02:17:54;16.33;;;11.75;;
38208;SDS011;24016;52.102;11.584;2023-03-11T02:20:31;15.88;;;11.93;;
38208;SDS011;24016;52.102;11.584;2023-03-11T02:23:13;15.40;;;11.52;;
38208;SDS011;24016;52.102;11.584;2023-03-11T02:25:43;19.00;;;12.73;;
38208;SDS011;24016;52.102;11.584;2023-03-11T02:28:10;15.43;;;12.48;;
38208;SDS011;24016;52.102;11.584;2023-03-11T02:33:22;16.90;;;12.02;;
38208;SDS011;24016;52.102;11.584;2023-03-11T02:35:50;15.95;;;11.70;;
38208;SDS011;24016;52.102;11.584;2023-03-11T02:38:16;15.88;;;12.00;;
38208;SDS011;24016;52.102;11.584;2023-03-11T02:40:47;15.52;;;11.23;;
38208;SDS011;24016;52.102;11.584;2023-03-11T02:43:22;18.00;;;11.88;;
38208;SDS011;24016;52.102;11.584;2023-03-11T02:46:01;16.05;;;12.00;;
38208;SDS011;24016;52.102;11.584;2023-03-11T02:48:28;17.00;;;11.88;;
38208;SDS011;24016;52.102;11.584;2023-03-11T02:50:54;18.67;;;13.23;;
38208;SDS011;24016;52.102;11.584;2023-03-11T02:53:21;17.98;;;12.55;;
38208;SDS011;24016;52.102;11.584;2023-03-11T02:55:46;19.95;;;13.70;;
38208;SDS011;24016;52.102;11.584;2023-03-11T02:58:12;17.48;;;12.93;;
38208;SDS011;24016;52.102;11.584;2023-03-11T03:00:37;23.13;;;14.88;;
38208;SDS011;24016;52.102;11.584;2023-03-11T03:03:03;20.98;;;14.38;;
38208;SDS011;24016;52.102;11.584;2023-03-11T03:05:29;22.27;;;15.52;;
38208;SDS011;24016;52.102;11.584;2023-03-11T03:07:54;24.33;;;15.90;;
38208;SDS011;24016;52.102;11.584;2023-03-11T03:10:20;25.48;;;17.35;;
38208;SDS011;24016;52.102;11.584;2023-03-11T03:12:46;26.08;;;17.88;;
38208;SDS011;24016;52.102;11.584;2023-03-11T03:15:12;26.73;;;18.83;;
38208;SDS011;24016;52.102;11.584;2023-03-11T03:17:39;31.30;;;18.75;;
38208;SDS011;24016;52.102;11.584;2023-03-11T03:20:05;30.52;;;21.02;;
38208;SDS011;24016;52.102;11.584;2023-03-11T03:22:35;30.75;;;21.13;;
38208;SDS011;24016;52.102;11.584;2023-03-11T03:25:01;33.65;;;21.83;;
38208;SDS011;24016;52.102;11.584;2023-03-11T03:27:26;34.17;;;23.02;;
38208;SDS011;24016;52.102;11.584;2023-03-11T03:29:52;34.10;;;23.17;;
38208;SDS011;24016;52.102;11.584;2023-03-11T03:32:17;39.38;;;24.88;;
38208;SDS011;24016;52.102;11.584;2023-03-11T03:34:43;39.90;;;24.88;;
38208;SDS011;24016;52.102;11.584;2023-03-11T03:37:08;40.85;;;25.83;;
38208;SDS011;24016;52.102;11.584;2023-03-11T03:39:34;37.47;;;25.02;;
38208;SDS011;24016;52.102;11.584;2023-03-11T03:41:59;39.13;;;25.30;;
38208;SDS011;24016;52.102;11.584;2023-03-11T03:44:25;38.83;;;23.27;;
38208;SDS011;24016;52.102;11.584;2023-03-11T03:46:50;38.25;;;23.45;;
38208;SDS011;24016;52.102;11.584;2023-03-11T03:49:16;40.13;;;23.80;;
38208;SDS011;24016;52.102;11.584;2023-03-11T03:51:41;38.22;;;24.05;;
38208;SDS011;24016;52.102;11.584;2023-03-11T03:54:06;37.03;;;23.10;;
38208;SDS011;24016;52.102;11.584;2023-03-11T03:56:32;33.90;;;22.73;;
38208;SDS011;24016;52.102;11.584;2023-03-11T03:58:58;36.22;;;22.15;;
38208;SDS011;24016;52.102;11.584;2023-03-11T04:01:23;37.60;;;23.08;;
38208;SDS011;24016;52.102;11.584;2023-03-11T04:03:49;36.20;;;22.70;;
38208;SDS011;24016;52.102;11.584;2023-03-11T04:06:18;35.08;;;22.27;;
38208;SDS011;24016;52.102;11.584;2023-03-11T04:08:46;38.90;;;23.25;;
38208;SDS011;24016;52.102;11.584;2023-03-11T04:11:12;35.05;;;22.45;;
38208;SDS011;24016;52.102;11.584;2023-03-11T04:13:38;33.80;;;21.70;;
38208;SDS011;24016;52.102;11.584;2023-03-11T04:16:04;35.22;;;23.45;;
38208;SDS011;24016;52.102;11.584;2023-03-11T04:18:31;38.38;;;23.58;;
38208;SDS011;24016;52.102;11.584;2023-03-11T04:20:56;37.50;;;23.98;;
38208;SDS011;24016;52.102;11.584;2023-03-11T04:23:22;35.13;;;22.80;;
38208;SDS011;24016;52.102;11.584;2023-03-11T04:25:47;36.80;;;24.05;;
38208;SDS011;24016;52.102;11.584;2023-03-11T04:28:13;36.20;;;24.13;;
38208;SDS011;24016;52.102;11.584;2023-03-11T04:30:38;35.92;;;23.30;;
38208;SDS011;24016;52.102;11.584;2023-03-11T04:33:04;38.15;;;24.95;;
38208;SDS011;24016;52.102;11.584;2023-03-11T04:35:29;37.55;;;24.70;;
38208;SDS011;24016;52.102;11.584;2023-03-11T04:37:55;36.53;;;25.08;;
38208;SDS011;24016;52.102;11.584;2023-03-11T04:40:20;36.08;;;25.05;;
38208;SDS011;24016;52.102;11.584;2023-03-11T04:42:46;35.78;;;24.98;;
38208;SDS011;24016;52.102;11.584;2023-03-11T04:45:11;37.40;;;24.85;;
38208;SDS011;24016;52.102;11.584;2023-03-11T04:47:37;38.95;;;25.60;;
38208;SDS011;24016;52.102;11.584;2023-03-11T04:50:02;32.10;;;23.58;;
38208;SDS011;24016;52.102;11.584;2023-03-11T04:52:28;34.13;;;23.80;;
38208;SDS011;24016;52.102;11.584;2023-03-11T04:54:54;32.25;;;22.17;;
38208;SDS011;24016;52.102;11.584;2023-03-11T04:57:19;29.42;;;21.75;;
38208;SDS011;24016;52.102;11.584;2023-03-11T04:59:45;28.23;;;21.55;;
38208;SDS011;24016;52.102;11.584;2023-03-11T05:02:11;28.02;;;20.95;;
38208;SDS011;24016;52.102;11.584;2023-03-11T05:04:36;29.65;;;21.30;;
38208;SDS011;24016;52.102;11.584;2023-03-11T05:07:02;29.95;;;20.77;;
38208;SDS011;24016;52.102;11.584;2023-03-11T05:09:27;25.67;;;20.23;;
38208;SDS011;24016;52.102;11.584;2023-03-11T05:11:53;24.02;;;18.55;;
38208;SDS011;24016;52.102;11.584;2023-03-11T05:14:18;23.80;;;19.20;;
38208;SDS011;24016;52.102;11.584;2023-03-11T05:16:44;25.15;;;20.08;;
38208;SDS011;24016;52.102;11.584;2023-03-11T05:19:09;24.17;;;18.88;;
38208;SDS011;24016;52.102;11.584;2023-03-11T05:21:53;25.33;;;19.08;;
38208;SDS011;24016;52.102;11.584;2023-03-11T05:24:18;26.80;;;19.63;;
38208;SDS011;24016;52.102;11.584;2023-03-11T05:26:44;22.88;;;18.13;;
38208;SDS011;24016;52.102;11.584;2023-03-11T05:29:09;21.73;;;17.80;;
38208;SDS011;24016;52.102;11.584;2023-03-11T05:31:35;21.52;;;17.67;;
38208;SDS011;24016;52.102;11.584;2023-03-11T05:34:00;20.73;;;17.67;;
38208;SDS011;24016;52.102;11.584;2023-03-11T05:36:26;26.10;;;19.55;;
38208;SDS011;24016;52.102;11.584;2023-03-11T05:38:51;22.55;;;18.02;;
38208;SDS011;24016;52.102;11.584;2023-03-11T05:41:17;21.77;;;17.45;;
38208;SDS011;24016;52.102;11.584;2023-03-11T05:43:43;22.38;;;18.52;;
38208;SDS011;24016;52.102;11.584;2023-03-11T05:46:08;23.73;;;18.80;;
38208;SDS011;24016;52.102;11.584;2023-03-11T05:48:34;23.35;;;19.40;;
38208;SDS011;24016;52.102;11.584;2023-03-11T05:51:00;22.02;;;18.02;;
38208;SDS011;24016;52.102;11.584;2023-03-11T05:53:30;23.15;;;18.95;;
38208;SDS011;24016;52.102;11.584;2023-03-11T05:55:56;24.10;;;18.30;;
38208;SDS011;24016;52.102;11.584;2023-03-11T05:58:22;25.27;;;19.55;;
38208;SDS011;24016;52.102;11.584;2023-03-11T06:00:48;24.75;;;18.98;;
38208;SDS011;24016;52.102;11.584;2023-03-11T06:03:13;25.67;;;19.67;;
38208;SDS011;24016;52.102;11.584;2023-03-11T06:05:45;24.00;;;18.83;;
38208;SDS011;24016;52.102;11.584;2023-03-11T06:08:11;25.05;;;19.80;;
38208;SDS011;24016;52.102;11.584;2023-03-11T06:10:37;25.20;;;20.00;;
38208;SDS011;24016;52.102;11.584;2023-03-11T06:13:03;26.38;;;20.30;;
38208;SDS011;24016;52.102;11.584;2023-03-11T06:15:29;25.30;;;20.45;;
38208;SDS011;24016;52.102;11.584;2023-03-11T06:17:56;23.77;;;19.23;;
38208;SDS011;24016;52.102;11.584;2023-03-11T06:20:21;23.70;;;18.95;;
38208;SDS011;24016;52.102;11.584;2023-03-11T06:22:47;21.25;;;17.35;;
38208;SDS011;24016;52.102;11.584;2023-03-11T06:25:13;21.63;;;17.70;;
38208;SDS011;24016;52.102;11.584;2023-03-11T06:27:39;21.58;;;17.73;;
38208;SDS011;24016;52.102;11.584;2023-03-11T06:30:04;20.55;;;17.42;;
38208;SDS011;24016;52.102;11.584;2023-03-11T06:32:30;20.50;;;16.73;;
38208;SDS011;24016;52.102;11.584;2023-03-11T06:34:58;20.27;;;15.30;;
38208;SDS011;24016;52.102;11.584;2023-03-11T06:37:23;19.73;;;16.08;;
38208;SDS011;24016;52.102;11.584;2023-03-11T06:39:51;20.63;;;16.10;;
38208;SDS011;24016;52.102;11.584;2023-03-11T06:42:17;19.27;;;15.45;;
38208;SDS011;24016;52.102;11.584;2023-03-11T06:44:43;19.02;;;15.77;;
38208;SDS011;24016;52.102;11.584;2023-03-11T06:47:10;18.73;;;14.80;;
38208;SDS011;24016;52.102;11.584;2023-03-11T06:49:36;18.42;;;15.48;;
38208;SDS011;24016;52.102;11.584;2023-03-11T06:52:04;16.77;;;14.15;;
38208;SDS011;24016;52.102;11.584;2023-03-11T06:54:30;21.60;;;15.88;;
38208;SDS011;24016;52.102;11.584;2023-03-11T06:56:56;18.75;;;14.90;;
38208;SDS011;24016;52.102;11.584;2023-03-11T06:59:21;16.95;;;14.20;;
38208;SDS011;24016;52.102;11.584;2023-03-11T07:01:47;19.73;;;14.77;;
38208;SDS011;24016;52.102;11.584;2023-03-11T07:04:12;21.42;;;15.45;;
38208;SDS011;24016;52.102;11.584;2023-03-11T07:06:38;19.15;;;15.38;;
38208;SDS011;24016;52.102;11.584;2023-03-11T07:09:05;19.02;;;14.63;;
38208;SDS011;24016;52.102;11.584;2023-03-11T07:11:31;17.80;;;15.10;;
38208;SDS011;24016;52.102;11.584;2023-03-11T07:13:56;17.33;;;14.02;;
38208;SDS011;24016;52.102;11.584;2023-03-11T07:16:23;18.52;;;14.77;;
38208;SDS011;24016;52.102;11.584;2023-03-11T07:18:50;16.92;;;14.43;;
38208;SDS011;24016;52.102;11.584;2023-03-11T07:21:19;17.98;;;14.43;;
38208;SDS011;24016;52.102;11.584;2023-03-11T07:23:45;19.45;;;13.27;;
38208;SDS011;24016;52.102;11.584;2023-03-11T07:26:13;15.85;;;12.95;;
38208;SDS011;24016;52.102;11.584;2023-03-11T07:28:39;15.48;;;12.60;;
38208;SDS011;24016;52.102;11.584;2023-03-11T07:31:13;14.60;;;11.52;;
38208;SDS011;24016;52.102;11.584;2023-03-11T07:33:40;17.48;;;12.80;;
38208;SDS011;24016;52.102;11.584;2023-03-11T07:36:06;15.30;;;12.02;;
38208;SDS011;24016;52.102;11.584;2023-03-11T07:38:33;15.15;;;12.43;;
38208;SDS011;24016;52.102;11.584;2023-03-11T07:40:59;14.63;;;11.50;;
38208;SDS011;24016;52.102;11.584;2023-03-11T07:43:25;14.50;;;11.70;;
38208;SDS011;24016;52.102;11.584;2023-03-11T07:45:50;13.77;;;11.18;;
38208;SDS011;24016;52.102;11.584;2023-03-11T07:48:16;12.60;;;9.45;;
38208;SDS011;24016;52.102;11.584;2023-03-11T07:50:42;12.68;;;9.85;;
38208;SDS011;24016;52.102;11.584;2023-03-11T07:53:07;12.30;;;9.27;;
38208;SDS011;24016;52.102;11.584;2023-03-11T07:55:33;13.30;;;10.05;;
38208;SDS011;24016;52.102;11.584;2023-03-11T07:57:58;14.07;;;10.63;;
38208;SDS011;24016;52.102;11.584;2023-03-11T08:00:24;14.90;;;10.32;;
38208;SDS011;24016;52.102;11.584;2023-03-11T08:02:49;13.00;;;10.93;;
38208;SDS011;24016;52.102;11.584;2023-03-11T08:05:15;14.25;;;10.50;;
38208;SDS011;24016;52.102;11.584;2023-03-11T08:07:44;13.15;;;10.45;;
38208;SDS011;24016;52.102;11.584;2023-03-11T08:10:10;13.30;;;9.93;;
38208;SDS011;24016;52.102;11.584;2023-03-11T08:12:36;12.82;;;10.10;;
38208;SDS011;24016;52.102;11.584;2023-03-11T08:15:01;10.40;;;8.93;;
38208;SDS011;24016;52.102;11.584;2023-03-11T08:17:27;10.75;;;9.23;;
38208;SDS011;24016;52.102;11.584;2023-03-11T08:19:52;15.00;;;9.93;;
38208;SDS011;24016;52.102;11.584;2023-03-11T08:22:18;12.95;;;10.40;;
38208;SDS011;24016;52.102;11.584;2023-03-11T08:24:43;12.65;;;10.60;;
38208;SDS011;24016;52.102;11.584;2023-03-11T08:27:09;12.88;;;9.73;;
38208;SDS011;24016;52.102;11.584;2023-03-11T08:29:36;13.90;;;10.88;;
38208;SDS011;24016;52.102;11.584;2023-03-11T08:32:02;14.48;;;10.85;;
38208;SDS011;24016;52.102;11.584;2023-03-11T08:34:28;13.63;;;11.52;;
38208;SDS011;24016;52.102;11.584;2023-03-11T08:36:53;14.90;;;11.73;;
38208;SDS011;24016;52.102;11.584;2023-03-11T08:39:19;14.65;;;12.20;;
38208;SDS011;24016;52.102;11.584;2023-03-11T08:41:44;13.93;;;11.85;;
38208;SDS011;24016;52.102;11.584;2023-03-11T08:44:10;16.10;;;12.15;;
38208;SDS011;24016;52.102;11.584;2023-03-11T08:46:36;16.30;;;10.95;;
38208;SDS011;24016;52.102;11.584;2023-03-11T08:49:02;14.38;;;11.00;;
38208;SDS011;24016;52.102;11.584;2023-03-11T08:51:30;12.52;;;11.15;;
38208;SDS011;24016;52.102;11.584;2023-03-11T08:53:57;13.52;;;10.65;;
38208;SDS011;24016;52.102;11.584;2023-03-11T08:56:23;12.40;;;10.63;;
38208;SDS011;24016;52.102;11.584;2023-03-11T08:58:48;14.70;;;10.23;;
38208;SDS011;24016;52.102;11.584;2023-03-11T09:01:14;11.18;;;9.20;;
38208;SDS011;24016;52.102;11.584;2023-03-11T09:03:40;12.98;;;10.48;;
38208;SDS011;24016;52.102;11.584;2023-03-11T09:06:07;12.15;;;10.25;;
38208;SDS011;24016;52.102;11.584;2023-03-11T09:08:37;12.52;;;9.82;;
38208;SDS011;24016;52.102;11.584;2023-03-11T09:11:03;11.32;;;9.18;;
38208;SDS011;24016;52.102;11.584;2023-03-11T09:13:29;12.30;;;9.65;;
38208;SDS011;24016;52.102;11.584;2023-03-11T09:15:55;10.32;;;8.15;;
38208;SDS011;24016;52.102;11.584;2023-03-11T09:18:20;12.93;;;8.60;;
38208;SDS011;24016;52.102;11.584;2023-03-11T09:20:46;9.50;;;7.57;;
38208;SDS011;24016;52.102;11.584;2023-03-11T09:23:13;10.27;;;8.30;;
38208;SDS011;24016;52.102;11.584;2023-03-11T09:25:39;9.10;;;6.65;;
38208;SDS011;24016;52.102;11.584;2023-03-11T09:28:05;8.10;;;6.07;;
38208;SDS011;24016;52.102;11.584;2023-03-11T09:30:30;9.63;;;6.13;;
38208;SDS011;24016;52.102;11.584;2023-03-11T09:32:56;7.20;;;6.00;;
38208;SDS011;24016;52.102;11.584;2023-03-11T09:35:23;7.40;;;5.55;;
38208;SDS011;24016;52.102;11.584;2023-03-11T09:37:48;6.78;;;5.60;;
38208;SDS011;24016;52.102;11.584;2023-03-11T09:40:16;6.55;;;5.13;;
38208;SDS011;24016;52.102;11.584;2023-03-11T09:45:27;6.65;;;4.78;;
38208;SDS011;24016;52.102;11.584;2023-03-11T09:50:49;6.75;;;5.13;;
38208;SDS011;24016;52.102;11.584;2023-03-11T09:56:03;6.60;;;5.07;;
38208;SDS011;24016;52.102;11.584;2023-03-11T09:58:38;5.90;;;5.13;;
38208;SDS011;24016;52.102;11.584;2023-03-11T10:01:31;9.07;;;4.82;;
38208;SDS011;24016;52.102;11.584;2023-03-11T10:06:37;6.32;;;4.93;;
38208;SDS011;24016;52.102;11.584;2023-03-11T10:09:09;5.97;;;4.93;;
38208;SDS011;24016;52.102;11.584;2023-03-11T10:14:38;6.35;;;5.35;;
38208;SDS011;24016;52.102;11.584;2023-03-11T10:17:28;8.00;;;5.80;;
38208;SDS011;24016;52.102;11.584;2023-03-11T10:23:18;7.30;;;5.72;;
38208;SDS011;24016;52.102;11.584;2023-03-11T10:28:45;5.75;;;4.72;;
38208;SDS011;24016;52.102;11.584;2023-03-11T10:31:36;6.45;;;4.95;;
38208;SDS011;24016;52.102;11.584;2023-03-11T10:39:45;7.82;;;5.50;;
38208;SDS011;24016;52.102;11.584;2023-03-11T10:42:13;8.45;;;5.85;;
38208;SDS011;24016;52.102;11.584;2023-03-11T10:44:43;6.88;;;5.28;;
38208;SDS011;24016;52.102;11.584;2023-03-11T10:47:13;7.97;;;5.55;;
38208;SDS011;24016;52.102;11.584;2023-03-11T10:49:44;6.00;;;4.60;;
38208;SDS011;24016;52.102;11.584;2023-03-11T10:52:09;6.80;;;5.13;;
38208;SDS011;24016;52.102;11.584;2023-03-11T10:54:36;6.78;;;4.93;;
38208;SDS011;24016;52.102;11.584;2023-03-11T10:57:23;6.25;;;3.60;;
38208;SDS011;24016;52.102;11.584;2023-03-11T11:00:00;4.78;;;3.72;;
38208;SDS011;24016;52.102;11.584;2023-03-11T11:02:49;5.00;;;3.70;;
38208;SDS011;24016;52.102;11.584;2023-03-11T11:07:47;5.88;;;3.80;;
38208;SDS011;24016;52.102;11.584;2023-03-11T11:12:52;4.95;;;3.80;;
38208;SDS011;24016;52.102;11.584;2023-03-11T11:18:24;5.80;;;4.60;;
38208;SDS011;24016;52.102;11.584;2023-03-11T11:21:00;6.45;;;4.90;;
38208;SDS011;24016;52.102;11.584;2023-03-11T11:23:33;6.28;;;4.53;;
38208;SDS011;24016;52.102;11.584;2023-03-11T11:26:17;5.88;;;4.45;;
38208;SDS011;24016;52.102;11.584;2023-03-11T11:29:03;6.50;;;4.82;;
38208;SDS011;24016;52.102;11.584;2023-03-11T11:31:45;6.13;;;4.32;;
38208;SDS011;24016;52.102;11.584;2023-03-11T11:34:26;7.85;;;4.70;;
38208;SDS011;24016;52.102;11.584;2023-03-11T11:36:57;5.93;;;4.75;;
38208;SDS011;24016;52.102;11.584;2023-03-11T11:39:25;6.10;;;4.78;;
38208;SDS011;24016;52.102;11.584;2023-03-11T11:41:53;7.25;;;5.22;;
38208;SDS011;24016;52.102;11.584;2023-03-11T11:44:20;6.88;;;4.38;;
38208;SDS011;24016;52.102;11.584;2023-03-11T11:46:50;6.03;;;4.38;;
38208;SDS011;24016;52.102;11.584;2023-03-11T11:49:28;5.30;;;3.95;;
38208;SDS011;24016;52.102;11.584;2023-03-11T11:52:12;5.10;;;4.03;;
38208;SDS011;24016;52.102;11.584;2023-03-11T11:55:22;6.22;;;4.10;;
38208;SDS011;24016;52.102;11.584;2023-03-11T11:57:41;4.55;;;3.45;;
38208;SDS011;24016;52.102;11.584;2023-03-11T12:00:14;6.43;;;3.25;;
38208;SDS011;24016;52.102;11.584;2023-03-11T12:03:00;4.43;;;3.03;;
38208;SDS011;24016;52.102;11.584;2023-03-11T12:05:51;4.15;;;2.90;;
38208;SDS011;24016;52.102;11.584;2023-03-11T12:11:05;5.03;;;2.60;;
38208;SDS011;24016;52.102;11.584;2023-03-11T12:13:40;3.53;;;2.80;;
38208;SDS011;24016;52.102;11.584;2023-03-11T12:21:54;3.60;;;2.58;;
38208;SDS011;24016;52.102;11.584;2023-03-11T12:24:52;3.67;;;2.50;;
38208;SDS011;24016;52.102;11.584;2023-03-11T12:27:26;3.85;;;2.40;;
38208;SDS011;24016;52.102;11.584;2023-03-11T12:29:58;3.03;;;2.10;;
38208;SDS011;24016;52.102;11.584;2023-03-11T12:32:32;4.38;;;2.40;;
38208;SDS011;24016;52.102;11.584;2023-03-11T12:35:08;3.58;;;2.45;;
38208;SDS011;24016;52.102;11.584;2023-03-11T12:37:43;4.05;;;2.58;;
38208;SDS011;24016;52.102;11.584;2023-03-11T12:43:03;3.08;;;1.92;;
38208;SDS011;24016;52.102;11.584;2023-03-11T12:45:48;2.90;;;2.10;;
38208;SDS011;24016;52.102;11.584;2023-03-11T12:48:34;2.80;;;2.20;;
38208;SDS011;24016;52.102;11.584;2023-03-11T12:56:56;3.58;;;2.20;;
38208;SDS011;24016;52.102;11.584;2023-03-11T13:02:42;3.40;;;2.00;;
38208;SDS011;24016;52.102;11.584;2023-03-11T13:08:43;3.50;;;1.60;;
38208;SDS011;24016;52.102;11.584;2023-03-11T13:14:08;5.05;;;2.30;;
38208;SDS011;24016;52.102;11.584;2023-03-11T13:16:44;4.53;;;2.08;;
38208;SDS011;24016;52.102;11.584;2023-03-11T13:22:38;4.07;;;2.00;;
38208;SDS011;24016;52.102;11.584;2023-03-11T13:27:54;4.75;;;2.13;;
38208;SDS011;24016;52.102;11.584;2023-03-11T13:30:31;4.28;;;2.20;;
38208;SDS011;24016;52.102;11.584;2023-03-11T13:33:09;5.35;;;2.15;;
38208;SDS011;24016;52.102;11.584;2023-03-11T13:36:19;4.40;;;1.98;;
38208;SDS011;24016;52.102;11.584;2023-03-11T13:41:58;4.07;;;2.03;;
38208;SDS011;24016;52.102;11.584;2023-03-11T13:44:32;3.83;;;1.65;;
38208;SDS011;24016;52.102;11.584;2023-03-11T13:47:08;4.82;;;1.77;;
38208;SDS011;24016;52.102;11.584;2023-03-11T13:49:58;3.58;;;2.00;;
38208;SDS011;24016;52.102;11.584;2023-03-11T13:52:35;2.35;;;1.67;;
38208;SDS011;24016;52.102;11.584;2023-03-11T13:55:06;3.00;;;2.00;;
38208;SDS011;24016;52.102;11.584;2023-03-11T13:57:48;3.85;;;1.98;;
38208;SDS011;24016;52.102;11.584;2023-03-11T14:00:16;3.63;;;2.13;;
38208;SDS011;24016;52.102;11.584;2023-03-11T14:02:53;4.32;;;2.40;;
38208;SDS011;24016;52.102;11.584;2023-03-11T14:05:24;5.43;;;2.30;;
38208;SDS011;24016;52.102;11.584;2023-03-11T14:10:55;5.10;;;2.30;;
38208;SDS011;24016;52.102;11.584;2023-03-11T14:13:28;3.13;;;1.70;;
38208;SDS011;24016;52.102;11.584;2023-03-11T14:18:33;6.18;;;2.00;;
38208;SDS011;24016;52.102;11.584;2023-03-11T14:20:59;2.88;;;1.52;;
38208;SDS011;24016;52.102;11.584;2023-03-11T14:23:41;3.45;;;1.90;;
38208;SDS011;24016;52.102;11.584;2023-03-11T14:26:13;2.88;;;1.75;;
38208;SDS011;24016;52.102;11.584;2023-03-11T14:28:51;4.38;;;2.28;;
38208;SDS011;24016;52.102;11.584;2023-03-11T14:31:29;4.13;;;1.85;;
38208;SDS011;24016;52.102;11.584;2023-03-11T14:34:00;2.35;;;1.52;;
38208;SDS011;24016;52.102;11.584;2023-03-11T14:36:40;4.90;;;2.05;;
38208;SDS011;24016;52.102;11.584;2023-03-11T14:39:25;2.75;;;1.63;;
38208;SDS011;24016;52.102;11.584;2023-03-11T14:41:54;3.40;;;1.67;;
38208;SDS011;24016;52.102;11.584;2023-03-11T14:44:21;3.33;;;1.63;;
38208;SDS011;24016;52.102;11.584;2023-03-11T14:46:48;4.50;;;1.80;;
38208;SDS011;24016;52.102;11.584;2023-03-11T14:49:18;5.05;;;1.90;;
38208;SDS011;24016;52.102;11.584;2023-03-11T14:51:54;4.57;;;1.53;;
38208;SDS011;24016;52.102;11.584;2023-03-11T14:54:24;4.03;;;1.90;;
38208;SDS011;24016;52.102;11.584;2023-03-11T14:56:57;3.08;;;1.50;;
38208;SDS011;24016;52.102;11.584;2023-03-11T14:59:46;5.88;;;1.90;;
38208;SDS011;24016;52.102;11.584;2023-03-11T15:05:13;4.18;;;1.58;;
38208;SDS011;24016;52.102;11.584;2023-03-11T15:07:48;3.00;;;1.48;;
38208;SDS011;24016;52.102;11.584;2023-03-11T15:10:21;5.40;;;1.50;;
38208;SDS011;24016;52.102;11.584;2023-03-11T15:12:46;3.65;;;1.70;;
38208;SDS011;24016;52.102;11.584;2023-03-11T15:15:20;2.75;;;1.40;;
38208;SDS011;24016;52.102;11.584;2023-03-11T15:17:51;4.97;;;1.70;;
38208;SDS011;24016;52.102;11.584;2023-03-11T15:20:28;8.27;;;1.67;;
38208;SDS011;24016;52.102;11.584;2023-03-11T15:23:01;3.95;;;1.42;;
38208;SDS011;24016;52.102;11.584;2023-03-11T15:25:33;3.45;;;1.40;;
38208;SDS011;24016;52.102;11.584;2023-03-11T15:28:18;2.53;;;1.50;;
38208;SDS011;24016;52.102;11.584;2023-03-11T15:30:48;3.00;;;1.55;;
38208;SDS011;24016;52.102;11.584;2023-03-11T15:33:20;3.45;;;1.90;;
38208;SDS011;24016;52.102;11.584;2023-03-11T15:35:48;2.30;;;1.20;;
38208;SDS011;24016;52.102;11.584;2023-03-11T15:38:24;7.57;;;1.55;;
38208;SDS011;24016;52.102;11.584;2023-03-11T15:40:59;4.30;;;1.38;;
38208;SDS011;24016;52.102;11.584;2023-03-11T15:43:27;2.13;;;1.25;;
38208;SDS011;24016;52.102;11.584;2023-03-11T15:45:56;5.22;;;1.42;;
38208;SDS011;24016;52.102;11.584;2023-03-11T15:48:24;2.85;;;1.15;;
38208;SDS011;24016;52.102;11.584;2023-03-11T15:50:55;2.78;;;1.10;;